Fuerteventura, Spain

08:24 AM WEST am 29. März 2017 (GMT +0100)
Fuerteventura | | Change Station

Höhe 75 ft 28.45 °N, 13.87 °W | Updated 24 minutes ago

Partly Cloudy
Teils Wolkig
57 °F
gefühlte 57 °F
N
9
Wind Wechselnd Wind aus Nord-Nordwest

Heute
Max. -- | schwach -- °F
--% Regenrisiko
Gestern
Max. -- | schwach -- °F
Precip. -- inch
Druck 30.15 inch
Sichtweite 6.2 Meilen
Wolken Few 2500 ft
Taupunkt 50 °F
Feuchtigkeit 77%
Regen 0.00 inch
Schneehöhe Nicht verfügbar..
7:48 AM 8:11 PM
Neumond, 2% visible
METAR GCFV 290700Z 34008KT 290V350 9999 FEW025 14/10 Q1021
Druck 30.15 inch
Sichtweite 6.2 Meilen
Wolken Few 2500 ft
Taupunkt 50 °F
Feuchtigkeit 77%
Regen 0.00 inch
Schneehöhe Nicht verfügbar..
7:48 AM 8:11 PM
Neumond, 2% visible
METAR GCFV 290700Z 34008KT 290V350 9999 FEW025 14/10 Q1021

Get Severe Weather Alerts

Thanks for signing up!

Be on the lookout for a verification email in your inbox.

You'll start receiving the daily forecast at 8 AM.

×

10-Day Weather Forecast

×

Almanac

Astronomie

Mar. 29, 2017 Aufgang Untergang
Genaue Zeit
Bürgerliche Dämmerung
Nautische Dämmerung
Astronomische Dämmerung
Mond
Länge des sichtbaren Lichts
Tageslänge
Tomorrow will be .
, % of the Moon is Illuminated

Heutige Rekorde

Country Highs Country Lows

Community

WunderPhotos

Upload Photos

1,962,540 Fotos hochgeladen!

WunderBlog® & News

Nearby

Luftqualität

  Luftqualität LQ Index Schadstoff
Not available.

Schneehöhe

Station Depth Höhe

Erdbebenaktivität

Stadt Distance Mag. Time & Date
Minimum magnitude displayed is 2.5.

Erdbebenaktivität

Stadt Distance Mag. Time & Date
Minimum magnitude displayed is 2.5.

küstennahe Wassertemperaturen

Ort Temperatur

Stations

Wetterstationen in der Umgebung

Stationsstandort Temp. Windchill Taupunkt Feuchtigkeit Wind Precip. Höhe Aktualisiert Art